Sinton, Texas
Current Conditions -  °F | °C
As of 1:51 PM on Saturday 20 Dec 2014 (Local Time) from KCRP Reporting Station
Overcast Overcast  
Wind Chill: 57°   Ceiling: 1600
Heat Index: 57°   Visibility: 10mi
Dew Point: 50°   Wind: 6mph
Humidity: 77%   Direction: 30°NNE
Pressure: 30.15"   Gusts: NA
Location:  28.04°N, 97.51°W
Report Text: KCRP 201951Z 03005KT 10SM FEW014 BKN016 OVC018 14/10 A3015 RMK AO2 DZE21 SLP210 P0000 T01390100 $
Loading
Personal Weather Stations






























Interactive Weather Map New forecast layout! Learn more

10-Day Weather Forecast

Advertisements
Track Severe Weather on mobile